La Luna — 2BJU9 — position and weather

sailwx.info

Track history (hours):
 
Tides and Currents Weather Stations Pressure Air Temp Water Temp Dewpoint Dewpoint Depression Visibility Wind Speed Wind Dir Waves Ship Positions

La Luna

Last reported at 2016-Sep-14 13:33 UTC. Time now 2016-Sep-27 15:36 UTC.
Position N 39°47' E 002°39'.
Warning: this ship's position is 13 days out of date.

Type: Pleasure craft. MMSI: 235066733.

Date/timePositionNaut miles runAvg speedWind from/ knotsBaromVisibWave heightAir tempDewpointWater temp
2016-Sep-14 13:33N 39°47' E 002°39'2 2.3
2016-Sep-14 12:33N 39°48' E 002°42'0 0.0
2016-Sep-13 11:32N 39°48' E 002°42'20 5.1
2016-Sep-13 07:33N 40°04' E 002°58'276 7.7
2016-Sep-11 19:30N 43°32' E 007°01'1 0.0
2016-Sep-09 19:25N 43°33' E 007°01'2 1.9
2016-Sep-09 18:33N 43°31' E 007°00'  
2016-Sep-07 09:05N 40°23' E 003°16'5 9.1
2016-Sep-07 08:31N 40°19' E 003°11'9 8.9
2016-Sep-07 07:33N 40°13' E 003°03'9 8.7
2016-Sep-07 06:33N 40°07' E 002°55'16 7.9
2016-Sep-07 04:33N 39°55' E 002°41'7 7.1
2016-Sep-07 03:33N 39°50' E 002°34'23 5.9
2016-Sep-06 23:33N 39°29' E 002°21'8 6.7
2016-Sep-06 22:24N 39°26' E 002°31'6 7.7
2016-Sep-06 21:33N 39°30' E 002°37'4 3.6
2016-Sep-06 20:32N 39°34' E 002°38'0 0.0
2016-Sep-06 19:32N 39°34' E 002°38'0 0.0
2016-Sep-06 18:32N 39°34' E 002°38'0 0.0
2016-Sep-06 17:29N 39°34' E 002°38'0 0.0
2016-Sep-06 16:32N 39°34' E 002°38'0 0.0
2016-Sep-06 15:32N 39°34' E 002°38'0 0.0
2016-Sep-06 14:32N 39°34' E 002°38'0 0.0
2016-Sep-06 13:32N 39°34' E 002°38'0 0.0
2016-Sep-06 12:33N 39°34' E 002°38'0 0.0
2016-Sep-06 11:32N 39°34' E 002°38'0 0.0
2016-Sep-06 10:32N 39°34' E 002°38'1 0.8
2016-Sep-06 09:32N 39°33' E 002°39'1 0.8
2016-Sep-06 08:32N 39°34' E 002°38'0 0.0
2016-Sep-06 07:33N 39°34' E 002°38'0 0.0
2016-Sep-06 06:33N 39°34' E 002°38'0 0.0
2016-Sep-06 04:33N 39°34' E 002°38'0 0.0
2016-Sep-06 03:33N 39°34' E 002°38'0 0.0
2016-Sep-06 02:33N 39°34' E 002°38'0 0.0
2016-Sep-06 01:33N 39°34' E 002°38'0 0.0
2016-Sep-06 00:33N 39°34' E 002°38'0 0.0
2016-Sep-05 23:33N 39°34' E 002°38'0 0.0
2016-Sep-05 22:33N 39°34' E 002°38'0 0.0
2016-Sep-05 21:33N 39°34' E 002°38'0 0.0
2016-Sep-05 20:33N 39°34' E 002°38'0 0.0
2016-Sep-05 19:33N 39°34' E 002°38'0 0.0
2016-Sep-05 09:33N 39°34' E 002°38'0 0.0
2016-Sep-05 08:33N 39°34' E 002°38'0 0.0
2016-Sep-05 07:33N 39°34' E 002°38'0 0.0
2016-Sep-05 06:33N 39°34' E 002°38'0 0.0
2016-Sep-05 04:33N 39°34' E 002°38'0 0.0
2016-Sep-05 03:33N 39°34' E 002°38'0 0.0
2016-Sep-05 02:33N 39°34' E 002°38'0 0.0
2016-Sep-05 01:33N 39°34' E 002°38'0 0.0
2016-Sep-05 00:30N 39°34' E 002°38'0 0.0
2016-Sep-04 23:33N 39°34' E 002°38'0 0.0
2016-Sep-04 22:33N 39°34' E 002°38'0 0.0
2016-Sep-04 21:30N 39°34' E 002°38'0 0.0
2016-Sep-04 20:33N 39°34' E 002°38'0 0.0
2016-Sep-04 19:33N 39°34' E 002°38'0 0.0
2016-Sep-04 18:33N 39°34' E 002°38'0 0.0
2016-Sep-04 17:33N 39°34' E 002°38'0 0.0
2016-Sep-04 16:33N 39°34' E 002°38'0 0.0
2016-Sep-04 15:26N 39°34' E 002°38'0 0.0
2016-Sep-04 14:20N 39°34' E 002°38'  
Track history (hours):
 
Tides and Currents Weather Stations Pressure Air Temp Water Temp Dewpoint Dewpoint Depression Visibility Wind Speed Wind Dir Waves Ship Positions

La Luna

Last reported at 2016-Sep-14 13:33 UTC. Time now 2016-Sep-27 15:36 UTC.
Position N 39°47' E 002°39'.
Warning: this ship's position is 13 days out of date.

Type: Pleasure craft. MMSI: 235066733.

Date/timePositionNaut miles runAvg speedWind from/ knotsBaromVisibWave heightAir tempDewpointWater temp
2016-Sep-14 13:33N 39°47' E 002°39'2 2.3
2016-Sep-14 12:33N 39°48' E 002°42'0 0.0
2016-Sep-13 11:32N 39°48' E 002°42'20 5.1
2016-Sep-13 07:33N 40°04' E 002°58'276 7.7
2016-Sep-11 19:30N 43°32' E 007°01'1 0.0
2016-Sep-09 19:25N 43°33' E 007°01'2 1.9
2016-Sep-09 18:33N 43°31' E 007°00'  
2016-Sep-07 09:05N 40°23' E 003°16'5 9.1
2016-Sep-07 08:31N 40°19' E 003°11'9 8.9
2016-Sep-07 07:33N 40°13' E 003°03'9 8.7
2016-Sep-07 06:33N 40°07' E 002°55'16 7.9
2016-Sep-07 04:33N 39°55' E 002°41'7 7.1
2016-Sep-07 03:33N 39°50' E 002°34'23 5.9
2016-Sep-06 23:33N 39°29' E 002°21'8 6.7
2016-Sep-06 22:24N 39°26' E 002°31'6 7.7
2016-Sep-06 21:33N 39°30' E 002°37'4 3.6
2016-Sep-06 20:32N 39°34' E 002°38'0 0.0
2016-Sep-06 19:32N 39°34' E 002°38'0 0.0
2016-Sep-06 18:32N 39°34' E 002°38'0 0.0
2016-Sep-06 17:29N 39°34' E 002°38'0 0.0
2016-Sep-06 16:32N 39°34' E 002°38'0 0.0
2016-Sep-06 15:32N 39°34' E 002°38'0 0.0
2016-Sep-06 14:32N 39°34' E 002°38'0 0.0
2016-Sep-06 13:32N 39°34' E 002°38'0 0.0
2016-Sep-06 12:33N 39°34' E 002°38'0 0.0
2016-Sep-06 11:32N 39°34' E 002°38'0 0.0
2016-Sep-06 10:32N 39°34' E 002°38'1 0.8
2016-Sep-06 09:32N 39°33' E 002°39'1 0.8
2016-Sep-06 08:32N 39°34' E 002°38'0 0.0
2016-Sep-06 07:33N 39°34' E 002°38'0 0.0
2016-Sep-06 06:33N 39°34' E 002°38'0 0.0
2016-Sep-06 04:33N 39°34' E 002°38'0 0.0
2016-Sep-06 03:33N 39°34' E 002°38'0 0.0
2016-Sep-06 02:33N 39°34' E 002°38'0 0.0
2016-Sep-06 01:33N 39°34' E 002°38'0 0.0
2016-Sep-06 00:33N 39°34' E 002°38'0 0.0
2016-Sep-05 23:33N 39°34' E 002°38'0 0.0
2016-Sep-05 22:33N 39°34' E 002°38'0 0.0
2016-Sep-05 21:33N 39°34' E 002°38'0 0.0
2016-Sep-05 20:33N 39°34' E 002°38'0 0.0
2016-Sep-05 19:33N 39°34' E 002°38'0 0.0
2016-Sep-05 09:33N 39°34' E 002°38'0 0.0
2016-Sep-05 08:33N 39°34' E 002°38'0 0.0
2016-Sep-05 07:33N 39°34' E 002°38'0 0.0
2016-Sep-05 06:33N 39°34' E 002°38'0 0.0
2016-Sep-05 04:33N 39°34' E 002°38'0 0.0
2016-Sep-05 03:33N 39°34' E 002°38'0 0.0
2016-Sep-05 02:33N 39°34' E 002°38'0 0.0
2016-Sep-05 01:33N 39°34' E 002°38'0 0.0
2016-Sep-05 00:30N 39°34' E 002°38'0 0.0
2016-Sep-04 23:33N 39°34' E 002°38'0 0.0
2016-Sep-04 22:33N 39°34' E 002°38'0 0.0
2016-Sep-04 21:30N 39°34' E 002°38'0 0.0
2016-Sep-04 20:33N 39°34' E 002°38'0 0.0
2016-Sep-04 19:33N 39°34' E 002°38'0 0.0
2016-Sep-04 18:33N 39°34' E 002°38'0 0.0
2016-Sep-04 17:33N 39°34' E 002°38'0 0.0
2016-Sep-04 16:33N 39°34' E 002°38'0 0.0
2016-Sep-04 15:26N 39°34' E 002°38'0 0.0
2016-Sep-04 14:20N 39°34' E 002°38'  

Dump ship's entire track history